sensor_id;sensor_type;location;lat;lon;timestamp;P1;durP1;ratioP1;P2;durP2;ratioP2
32760;SDS011;19126;47.472;7.850;2022-07-17T00:00:24;4.57;;;2.83;;
32760;SDS011;19126;47.472;7.850;2022-07-17T00:02:52;5.10;;;2.80;;
32760;SDS011;19126;47.472;7.850;2022-07-17T00:05:19;5.15;;;2.95;;
32760;SDS011;19126;47.472;7.850;2022-07-17T00:07:46;4.20;;;3.00;;
32760;SDS011;19126;47.472;7.850;2022-07-17T00:10:16;4.60;;;2.78;;
32760;SDS011;19126;47.472;7.850;2022-07-17T00:12:44;7.18;;;2.65;;
32760;SDS011;19126;47.472;7.850;2022-07-17T00:15:11;3.97;;;2.58;;
32760;SDS011;19126;47.472;7.850;2022-07-17T00:17:39;5.43;;;2.65;;
32760;SDS011;19126;47.472;7.850;2022-07-17T00:20:07;5.80;;;2.67;;
32760;SDS011;19126;47.472;7.850;2022-07-17T00:22:35;6.70;;;2.80;;
32760;SDS011;19126;47.472;7.850;2022-07-17T00:25:03;5.55;;;2.58;;
32760;SDS011;19126;47.472;7.850;2022-07-17T00:27:33;5.15;;;3.17;;
32760;SDS011;19126;47.472;7.850;2022-07-17T00:30:00;7.40;;;3.13;;
32760;SDS011;19126;47.472;7.850;2022-07-17T00:32:28;5.38;;;3.03;;
32760;SDS011;19126;47.472;7.850;2022-07-17T00:34:55;8.75;;;3.42;;
32760;SDS011;19126;47.472;7.850;2022-07-17T00:37:22;7.13;;;2.75;;
32760;SDS011;19126;47.472;7.850;2022-07-17T00:39:49;7.68;;;2.75;;
32760;SDS011;19126;47.472;7.850;2022-07-17T00:42:17;8.75;;;2.80;;
32760;SDS011;19126;47.472;7.850;2022-07-17T00:44:46;8.38;;;3.38;;
32760;SDS011;19126;47.472;7.850;2022-07-17T00:47:14;7.85;;;2.60;;
32760;SDS011;19126;47.472;7.850;2022-07-17T00:49:44;4.00;;;2.97;;
32760;SDS011;19126;47.472;7.850;2022-07-17T00:52:12;9.30;;;2.90;;
32760;SDS011;19126;47.472;7.850;2022-07-17T00:54:41;5.57;;;3.00;;
32760;SDS011;19126;47.472;7.850;2022-07-17T00:57:11;6.13;;;3.60;;
32760;SDS011;19126;47.472;7.850;2022-07-17T00:59:40;7.25;;;3.17;;
32760;SDS011;19126;47.472;7.850;2022-07-17T01:02:10;7.95;;;3.05;;
32760;SDS011;19126;47.472;7.850;2022-07-17T01:04:39;6.25;;;3.42;;
32760;SDS011;19126;47.472;7.850;2022-07-17T01:07:07;11.77;;;4.15;;
32760;SDS011;19126;47.472;7.850;2022-07-17T01:09:35;6.88;;;3.28;;
32760;SDS011;19126;47.472;7.850;2022-07-17T01:12:02;6.57;;;3.63;;
32760;SDS011;19126;47.472;7.850;2022-07-17T01:14:31;4.57;;;3.03;;
32760;SDS011;19126;47.472;7.850;2022-07-17T01:16:59;4.13;;;3.22;;
32760;SDS011;19126;47.472;7.850;2022-07-17T01:19:28;14.48;;;3.63;;
32760;SDS011;19126;47.472;7.850;2022-07-17T01:21:57;8.63;;;3.65;;
32760;SDS011;19126;47.472;7.850;2022-07-17T01:24:24;5.00;;;3.80;;
32760;SDS011;19126;47.472;7.850;2022-07-17T01:26:51;6.82;;;3.17;;
32760;SDS011;19126;47.472;7.850;2022-07-17T01:29:19;6.68;;;3.60;;
32760;SDS011;19126;47.472;7.850;2022-07-17T01:31:46;5.38;;;3.08;;
32760;SDS011;19126;47.472;7.850;2022-07-17T01:34:13;7.70;;;3.40;;
32760;SDS011;19126;47.472;7.850;2022-07-17T01:36:41;9.95;;;3.30;;
32760;SDS011;19126;47.472;7.850;2022-07-17T01:39:10;4.35;;;3.17;;
32760;SDS011;19126;47.472;7.850;2022-07-17T01:41:37;4.28;;;3.30;;
32760;SDS011;19126;47.472;7.850;2022-07-17T01:44:05;4.38;;;3.03;;
32760;SDS011;19126;47.472;7.850;2022-07-17T01:46:33;7.95;;;3.05;;
32760;SDS011;19126;47.472;7.850;2022-07-17T01:49:01;9.93;;;3.35;;
32760;SDS011;19126;47.472;7.850;2022-07-17T01:51:28;5.22;;;3.10;;
32760;SDS011;19126;47.472;7.850;2022-07-17T01:53:55;6.95;;;3.17;;
32760;SDS011;19126;47.472;7.850;2022-07-17T01:56:24;7.57;;;3.10;;
32760;SDS011;19126;47.472;7.850;2022-07-17T01:58:52;7.47;;;3.65;;
32760;SDS011;19126;47.472;7.850;2022-07-17T02:01:19;6.65;;;3.13;;
32760;SDS011;19126;47.472;7.850;2022-07-17T02:03:46;5.97;;;3.15;;
32760;SDS011;19126;47.472;7.850;2022-07-17T02:06:13;5.47;;;3.15;;
32760;SDS011;19126;47.472;7.850;2022-07-17T02:08:41;7.25;;;3.60;;
32760;SDS011;19126;47.472;7.850;2022-07-17T02:11:08;6.80;;;3.83;;
32760;SDS011;19126;47.472;7.850;2022-07-17T02:13:36;8.32;;;3.38;;
32760;SDS011;19126;47.472;7.850;2022-07-17T02:16:04;6.90;;;3.33;;
32760;SDS011;19126;47.472;7.850;2022-07-17T02:18:32;6.38;;;3.25;;
32760;SDS011;19126;47.472;7.850;2022-07-17T02:20:59;6.18;;;3.47;;
32760;SDS011;19126;47.472;7.850;2022-07-17T02:23:26;6.40;;;3.00;;
32760;SDS011;19126;47.472;7.850;2022-07-17T02:25:54;10.25;;;3.42;;
32760;SDS011;19126;47.472;7.850;2022-07-17T02:28:21;6.68;;;3.58;;
32760;SDS011;19126;47.472;7.850;2022-07-17T02:30:49;8.68;;;3.08;;
32760;SDS011;19126;47.472;7.850;2022-07-17T02:33:17;5.15;;;3.20;;
32760;SDS011;19126;47.472;7.850;2022-07-17T02:35:44;3.92;;;3.50;;
32760;SDS011;19126;47.472;7.850;2022-07-17T02:38:11;6.22;;;3.65;;
32760;SDS011;19126;47.472;7.850;2022-07-17T02:40:39;10.02;;;4.10;;
32760;SDS011;19126;47.472;7.850;2022-07-17T02:43:07;5.93;;;3.55;;
32760;SDS011;19126;47.472;7.850;2022-07-17T02:45:34;5.82;;;3.38;;
32760;SDS011;19126;47.472;7.850;2022-07-17T02:48:03;6.22;;;4.00;;
32760;SDS011;19126;47.472;7.850;2022-07-17T02:50:30;9.82;;;4.28;;
32760;SDS011;19126;47.472;7.850;2022-07-17T02:52:58;5.85;;;4.10;;
32760;SDS011;19126;47.472;7.850;2022-07-17T02:55:25;6.88;;;3.70;;
32760;SDS011;19126;47.472;7.850;2022-07-17T02:57:52;6.70;;;3.60;;
32760;SDS011;19126;47.472;7.850;2022-07-17T03:00:19;6.45;;;3.80;;
32760;SDS011;19126;47.472;7.850;2022-07-17T03:02:47;12.43;;;3.97;;
32760;SDS011;19126;47.472;7.850;2022-07-17T03:05:16;9.70;;;4.43;;
32760;SDS011;19126;47.472;7.850;2022-07-17T03:07:44;7.70;;;3.97;;
32760;SDS011;19126;47.472;7.850;2022-07-17T03:10:11;8.93;;;3.42;;
32760;SDS011;19126;47.472;7.850;2022-07-17T03:12:39;8.18;;;3.67;;
32760;SDS011;19126;47.472;7.850;2022-07-17T03:15:07;5.85;;;3.60;;
32760;SDS011;19126;47.472;7.850;2022-07-17T03:17:35;6.55;;;3.95;;
32760;SDS011;19126;47.472;7.850;2022-07-17T03:20:04;5.10;;;3.58;;
32760;SDS011;19126;47.472;7.850;2022-07-17T03:22:35;6.53;;;4.22;;
32760;SDS011;19126;47.472;7.850;2022-07-17T03:25:02;8.80;;;3.78;;
32760;SDS011;19126;47.472;7.850;2022-07-17T03:27:30;5.28;;;3.60;;
32760;SDS011;19126;47.472;7.850;2022-07-17T03:29:58;7.93;;;3.55;;
32760;SDS011;19126;47.472;7.850;2022-07-17T03:32:25;8.70;;;3.28;;
32760;SDS011;19126;47.472;7.850;2022-07-17T03:34:53;6.50;;;4.05;;
32760;SDS011;19126;47.472;7.850;2022-07-17T03:37:20;5.65;;;3.42;;
32760;SDS011;19126;47.472;7.850;2022-07-17T03:39:49;10.75;;;4.07;;
32760;SDS011;19126;47.472;7.850;2022-07-17T03:42:16;4.18;;;3.47;;
32760;SDS011;19126;47.472;7.850;2022-07-17T03:44:43;7.18;;;4.05;;
32760;SDS011;19126;47.472;7.850;2022-07-17T03:47:10;8.35;;;3.70;;
32760;SDS011;19126;47.472;7.850;2022-07-17T03:49:37;4.75;;;3.60;;
32760;SDS011;19126;47.472;7.850;2022-07-17T03:52:05;7.63;;;3.92;;
32760;SDS011;19126;47.472;7.850;2022-07-17T03:54:32;10.02;;;4.20;;
32760;SDS011;19126;47.472;7.850;2022-07-17T03:57:01;10.60;;;4.40;;
32760;SDS011;19126;47.472;7.850;2022-07-17T03:59:28;9.82;;;4.60;;
32760;SDS011;19126;47.472;7.850;2022-07-17T04:01:55;5.72;;;3.95;;
32760;SDS011;19126;47.472;7.850;2022-07-17T04:04:22;8.60;;;3.85;;
32760;SDS011;19126;47.472;7.850;2022-07-17T04:06:50;12.13;;;3.90;;
32760;SDS011;19126;47.472;7.850;2022-07-17T04:09:17;5.35;;;3.65;;
32760;SDS011;19126;47.472;7.850;2022-07-17T04:11:44;10.27;;;4.10;;
32760;SDS011;19126;47.472;7.850;2022-07-17T04:14:13;8.45;;;4.03;;
32760;SDS011;19126;47.472;7.850;2022-07-17T04:16:40;10.45;;;4.60;;
32760;SDS011;19126;47.472;7.850;2022-07-17T04:19:07;6.90;;;4.28;;
32760;SDS011;19126;47.472;7.850;2022-07-17T04:21:34;9.55;;;4.22;;
32760;SDS011;19126;47.472;7.850;2022-07-17T04:24:02;6.13;;;4.45;;
32760;SDS011;19126;47.472;7.850;2022-07-17T04:26:30;7.50;;;4.28;;
32760;SDS011;19126;47.472;7.850;2022-07-17T04:28:57;6.45;;;4.25;;
32760;SDS011;19126;47.472;7.850;2022-07-17T04:31:26;8.70;;;5.00;;
32760;SDS011;19126;47.472;7.850;2022-07-17T04:33:53;5.55;;;3.80;;
32760;SDS011;19126;47.472;7.850;2022-07-17T04:36:20;6.00;;;4.22;;
32760;SDS011;19126;47.472;7.850;2022-07-17T04:38:47;6.95;;;4.65;;
32760;SDS011;19126;47.472;7.850;2022-07-17T04:41:14;9.57;;;4.43;;
32760;SDS011;19126;47.472;7.850;2022-07-17T04:43:41;15.48;;;4.68;;
32760;SDS011;19126;47.472;7.850;2022-07-17T04:46:08;10.93;;;4.30;;
32760;SDS011;19126;47.472;7.850;2022-07-17T04:48:37;8.82;;;4.53;;
32760;SDS011;19126;47.472;7.850;2022-07-17T04:51:04;7.95;;;4.25;;
32760;SDS011;19126;47.472;7.850;2022-07-17T04:53:31;8.88;;;4.15;;
32760;SDS011;19126;47.472;7.850;2022-07-17T04:56:00;4.75;;;4.13;;
32760;SDS011;19126;47.472;7.850;2022-07-17T04:58:27;6.47;;;4.20;;
32760;SDS011;19126;47.472;7.850;2022-07-17T05:00:55;12.45;;;4.70;;
32760;SDS011;19126;47.472;7.850;2022-07-17T05:03:22;7.78;;;4.05;;
32760;SDS011;19126;47.472;7.850;2022-07-17T05:05:50;7.78;;;3.63;;
32760;SDS011;19126;47.472;7.850;2022-07-17T05:08:18;6.38;;;4.38;;
32760;SDS011;19126;47.472;7.850;2022-07-17T05:10:45;8.93;;;4.45;;
32760;SDS011;19126;47.472;7.850;2022-07-17T05:13:12;7.38;;;4.13;;
32760;SDS011;19126;47.472;7.850;2022-07-17T05:15:40;8.45;;;3.80;;
32760;SDS011;19126;47.472;7.850;2022-07-17T05:18:07;7.25;;;4.57;;
32760;SDS011;19126;47.472;7.850;2022-07-17T05:20:34;8.85;;;4.20;;
32760;SDS011;19126;47.472;7.850;2022-07-17T05:23:03;10.10;;;4.25;;
32760;SDS011;19126;47.472;7.850;2022-07-17T05:25:30;9.30;;;3.60;;
32760;SDS011;19126;47.472;7.850;2022-07-17T05:27:58;6.70;;;3.70;;
32760;SDS011;19126;47.472;7.850;2022-07-17T05:30:27;5.20;;;4.07;;
32760;SDS011;19126;47.472;7.850;2022-07-17T05:32:54;6.82;;;3.40;;
32760;SDS011;19126;47.472;7.850;2022-07-17T05:35:21;4.07;;;3.10;;
32760;SDS011;19126;47.472;7.850;2022-07-17T05:37:49;10.73;;;3.15;;
32760;SDS011;19126;47.472;7.850;2022-07-17T05:40:17;7.68;;;3.22;;
32760;SDS011;19126;47.472;7.850;2022-07-17T05:42:44;6.90;;;3.25;;
32760;SDS011;19126;47.472;7.850;2022-07-17T05:45:12;4.38;;;3.45;;
32760;SDS011;19126;47.472;7.850;2022-07-17T05:47:39;7.15;;;3.22;;
32760;SDS011;19126;47.472;7.850;2022-07-17T05:50:07;4.90;;;3.13;;
32760;SDS011;19126;47.472;7.850;2022-07-17T05:52:34;6.05;;;2.95;;
32760;SDS011;19126;47.472;7.850;2022-07-17T05:55:02;7.57;;;3.28;;
32760;SDS011;19126;47.472;7.850;2022-07-17T05:57:31;3.63;;;2.65;;
32760;SDS011;19126;47.472;7.850;2022-07-17T05:59:59;4.97;;;2.92;;
32760;SDS011;19126;47.472;7.850;2022-07-17T06:02:26;5.32;;;2.90;;
32760;SDS011;19126;47.472;7.850;2022-07-17T06:04:53;7.18;;;2.67;;
32760;SDS011;19126;47.472;7.850;2022-07-17T06:07:20;4.30;;;2.55;;
32760;SDS011;19126;47.472;7.850;2022-07-17T06:09:48;4.63;;;2.33;;
32760;SDS011;19126;47.472;7.850;2022-07-17T06:12:15;13.02;;;2.85;;
32760;SDS011;19126;47.472;7.850;2022-07-17T06:14:43;8.15;;;4.07;;
32760;SDS011;19126;47.472;7.850;2022-07-17T06:17:10;7.47;;;3.08;;
32760;SDS011;19126;47.472;7.850;2022-07-17T06:19:38;4.18;;;2.67;;
32760;SDS011;19126;47.472;7.850;2022-07-17T06:22:06;5.75;;;2.53;;
32760;SDS011;19126;47.472;7.850;2022-07-17T06:24:33;5.63;;;2.65;;
32760;SDS011;19126;47.472;7.850;2022-07-17T06:27:00;6.70;;;2.35;;
32760;SDS011;19126;47.472;7.850;2022-07-17T06:29:28;4.78;;;2.33;;
32760;SDS011;19126;47.472;7.850;2022-07-17T06:31:56;3.97;;;2.30;;
32760;SDS011;19126;47.472;7.850;2022-07-17T06:34:23;4.00;;;2.53;;
32760;SDS011;19126;47.472;7.850;2022-07-17T06:36:51;8.20;;;2.63;;
32760;SDS011;19126;47.472;7.850;2022-07-17T06:39:18;3.78;;;2.30;;
32760;SDS011;19126;47.472;7.850;2022-07-17T06:41:45;3.85;;;2.50;;
32760;SDS011;19126;47.472;7.850;2022-07-17T06:44:12;4.13;;;2.42;;
32760;SDS011;19126;47.472;7.850;2022-07-17T06:46:39;3.70;;;2.05;;
32760;SDS011;19126;47.472;7.850;2022-07-17T06:49:08;3.67;;;2.22;;
32760;SDS011;19126;47.472;7.850;2022-07-17T06:51:36;7.03;;;2.50;;
32760;SDS011;19126;47.472;7.850;2022-07-17T06:54:03;4.82;;;2.40;;
32760;SDS011;19126;47.472;7.850;2022-07-17T06:56:30;10.95;;;2.13;;
32760;SDS011;19126;47.472;7.850;2022-07-17T06:58:57;5.75;;;2.10;;
32760;SDS011;19126;47.472;7.850;2022-07-17T07:01:24;6.47;;;2.30;;
32760;SDS011;19126;47.472;7.850;2022-07-17T07:03:51;9.38;;;2.55;;
32760;SDS011;19126;47.472;7.850;2022-07-17T07:06:20;2.78;;;1.80;;
32760;SDS011;19126;47.472;7.850;2022-07-17T07:08:47;5.55;;;2.10;;
32760;SDS011;19126;47.472;7.850;2022-07-17T07:11:14;5.35;;;2.35;;
32760;SDS011;19126;47.472;7.850;2022-07-17T07:13:41;7.65;;;2.35;;
32760;SDS011;19126;47.472;7.850;2022-07-17T07:16:08;5.38;;;1.98;;
32760;SDS011;19126;47.472;7.850;2022-07-17T07:18:36;5.07;;;2.33;;
32760;SDS011;19126;47.472;7.850;2022-07-17T07:21:03;4.00;;;2.15;;
32760;SDS011;19126;47.472;7.850;2022-07-17T07:23:31;9.60;;;2.13;;
32760;SDS011;19126;47.472;7.850;2022-07-17T07:25:59;4.88;;;2.42;;
32760;SDS011;19126;47.472;7.850;2022-07-17T07:28:26;7.15;;;2.45;;
32760;SDS011;19126;47.472;7.850;2022-07-17T07:30:53;2.97;;;2.13;;
32760;SDS011;19126;47.472;7.850;2022-07-17T07:33:20;3.53;;;2.10;;
32760;SDS011;19126;47.472;7.850;2022-07-17T07:35:48;5.82;;;2.15;;
32760;SDS011;19126;47.472;7.850;2022-07-17T07:38:15;4.80;;;2.53;;
32760;SDS011;19126;47.472;7.850;2022-07-17T07:40:44;6.30;;;2.22;;
32760;SDS011;19126;47.472;7.850;2022-07-17T07:43:11;4.57;;;2.10;;
32760;SDS011;19126;47.472;7.850;2022-07-17T07:45:38;4.50;;;2.38;;
32760;SDS011;19126;47.472;7.850;2022-07-17T07:48:05;4.72;;;2.60;;
32760;SDS011;19126;47.472;7.850;2022-07-17T07:50:32;10.52;;;2.58;;
32760;SDS011;19126;47.472;7.850;2022-07-17T07:52:59;6.60;;;2.22;;
32760;SDS011;19126;47.472;7.850;2022-07-17T07:55:27;9.70;;;2.03;;
32760;SDS011;19126;47.472;7.850;2022-07-17T07:58:02;5.80;;;2.05;;
32760;SDS011;19126;47.472;7.850;2022-07-17T08:00:30;5.28;;;2.28;;
32760;SDS011;19126;47.472;7.850;2022-07-17T08:02:58;5.13;;;2.33;;
32760;SDS011;19126;47.472;7.850;2022-07-17T08:05:25;4.43;;;1.77;;
32760;SDS011;19126;47.472;7.850;2022-07-17T08:07:53;4.28;;;2.30;;
32760;SDS011;19126;47.472;7.850;2022-07-17T08:10:20;6.57;;;2.10;;
32760;SDS011;19126;47.472;7.850;2022-07-17T08:12:48;9.02;;;2.35;;
32760;SDS011;19126;47.472;7.850;2022-07-17T08:15:17;5.93;;;2.08;;
32760;SDS011;19126;47.472;7.850;2022-07-17T08:17:46;5.80;;;2.05;;
32760;SDS011;19126;47.472;7.850;2022-07-17T08:20:16;5.80;;;2.10;;
32760;SDS011;19126;47.472;7.850;2022-07-17T08:22:44;7.35;;;2.28;;
32760;SDS011;19126;47.472;7.850;2022-07-17T08:25:13;6.10;;;2.13;;
32760;SDS011;19126;47.472;7.850;2022-07-17T08:27:40;4.68;;;2.10;;
32760;SDS011;19126;47.472;7.850;2022-07-17T08:30:10;7.68;;;2.58;;
32760;SDS011;19126;47.472;7.850;2022-07-17T08:32:41;5.10;;;2.15;;
32760;SDS011;19126;47.472;7.850;2022-07-17T08:35:09;6.20;;;2.50;;
32760;SDS011;19126;47.472;7.850;2022-07-17T08:37:44;8.45;;;1.90;;
32760;SDS011;19126;47.472;7.850;2022-07-17T08:40:16;4.82;;;2.42;;
32760;SDS011;19126;47.472;7.850;2022-07-17T08:42:51;9.32;;;2.33;;
32760;SDS011;19126;47.472;7.850;2022-07-17T08:45:19;8.48;;;2.20;;
32760;SDS011;19126;47.472;7.850;2022-07-17T08:47:48;6.25;;;2.20;;
32760;SDS011;19126;47.472;7.850;2022-07-17T08:50:19;7.53;;;2.10;;
32760;SDS011;19126;47.472;7.850;2022-07-17T08:52:50;12.40;;;1.85;;
32760;SDS011;19126;47.472;7.850;2022-07-17T08:55:17;5.13;;;1.67;;
32760;SDS011;19126;47.472;7.850;2022-07-17T08:57:45;5.20;;;1.95;;
32760;SDS011;19126;47.472;7.850;2022-07-17T09:00:13;8.90;;;2.38;;
32760;SDS011;19126;47.472;7.850;2022-07-17T09:02:53;4.03;;;1.70;;
32760;SDS011;19126;47.472;7.850;2022-07-17T09:05:23;7.10;;;1.90;;
32760;SDS011;19126;47.472;7.850;2022-07-17T09:07:52;7.53;;;2.03;;
32760;SDS011;19126;47.472;7.850;2022-07-17T09:10:29;3.47;;;1.70;;
32760;SDS011;19126;47.472;7.850;2022-07-17T09:13:01;9.57;;;2.00;;
32760;SDS011;19126;47.472;7.850;2022-07-17T09:15:40;4.95;;;2.10;;
32760;SDS011;19126;47.472;7.850;2022-07-17T09:18:08;9.77;;;2.10;;
32760;SDS011;19126;47.472;7.850;2022-07-17T09:20:38;6.80;;;2.08;;
32760;SDS011;19126;47.472;7.850;2022-07-17T09:23:12;4.63;;;1.85;;
32760;SDS011;19126;47.472;7.850;2022-07-17T09:25:40;8.13;;;2.35;;
32760;SDS011;19126;47.472;7.850;2022-07-17T09:28:09;6.35;;;1.85;;
32760;SDS011;19126;47.472;7.850;2022-07-17T09:30:39;1.73;;;1.50;;
32760;SDS011;19126;47.472;7.850;2022-07-17T09:33:12;9.40;;;2.13;;
32760;SDS011;19126;47.472;7.850;2022-07-17T09:35:49;3.67;;;2.00;;
32760;SDS011;19126;47.472;7.850;2022-07-17T09:38:25;4.25;;;2.30;;
32760;SDS011;19126;47.472;7.850;2022-07-17T09:41:01;5.85;;;1.80;;
32760;SDS011;19126;47.472;7.850;2022-07-17T09:43:40;4.25;;;1.95;;
32760;SDS011;19126;47.472;7.850;2022-07-17T09:46:14;4.53;;;2.05;;
32760;SDS011;19126;47.472;7.850;2022-07-17T09:51:15;4.07;;;1.88;;
32760;SDS011;19126;47.472;7.850;2022-07-17T09:53:48;7.05;;;2.30;;
32760;SDS011;19126;47.472;7.850;2022-07-17T09:56:20;4.05;;;1.90;;
32760;SDS011;19126;47.472;7.850;2022-07-17T09:58:49;7.05;;;1.98;;
32760;SDS011;19126;47.472;7.850;2022-07-17T10:01:19;10.80;;;2.20;;
32760;SDS011;19126;47.472;7.850;2022-07-17T10:03:48;5.97;;;2.00;;
32760;SDS011;19126;47.472;7.850;2022-07-17T10:06:18;7.88;;;2.63;;
32760;SDS011;19126;47.472;7.850;2022-07-17T10:08:46;3.75;;;2.03;;
32760;SDS011;19126;47.472;7.850;2022-07-17T10:11:13;5.50;;;2.20;;
32760;SDS011;19126;47.472;7.850;2022-07-17T10:13:42;3.70;;;2.05;;
32760;SDS011;19126;47.472;7.850;2022-07-17T10:16:11;3.47;;;1.80;;
32760;SDS011;19126;47.472;7.850;2022-07-17T10:18:40;3.55;;;1.92;;
32760;SDS011;19126;47.472;7.850;2022-07-17T10:21:11;6.35;;;1.88;;
32760;SDS011;19126;47.472;7.850;2022-07-17T10:23:42;3.00;;;1.80;;
32760;SDS011;19126;47.472;7.850;2022-07-17T10:26:14;4.50;;;1.77;;
32760;SDS011;19126;47.472;7.850;2022-07-17T10:28:42;7.22;;;2.08;;
32760;SDS011;19126;47.472;7.850;2022-07-17T10:31:21;7.75;;;2.40;;
32760;SDS011;19126;47.472;7.850;2022-07-17T10:33:56;4.82;;;2.28;;
32760;SDS011;19126;47.472;7.850;2022-07-17T10:36:35;4.40;;;2.17;;
32760;SDS011;19126;47.472;7.850;2022-07-17T10:39:11;7.18;;;2.25;;
32760;SDS011;19126;47.472;7.850;2022-07-17T10:41:40;4.20;;;2.03;;
32760;SDS011;19126;47.472;7.850;2022-07-17T10:44:09;5.63;;;2.78;;
32760;SDS011;19126;47.472;7.850;2022-07-17T10:46:36;9.63;;;2.13;;
32760;SDS011;19126;47.472;7.850;2022-07-17T10:49:03;6.07;;;2.47;;
32760;SDS011;19126;47.472;7.850;2022-07-17T10:51:30;10.80;;;2.00;;
32760;SDS011;19126;47.472;7.850;2022-07-17T10:54:01;9.52;;;2.47;;
32760;SDS011;19126;47.472;7.850;2022-07-17T10:56:28;6.70;;;2.00;;
32760;SDS011;19126;47.472;7.850;2022-07-17T10:59:00;7.55;;;1.63;;
32760;SDS011;19126;47.472;7.850;2022-07-17T11:01:28;4.38;;;2.00;;
32760;SDS011;19126;47.472;7.850;2022-07-17T11:03:56;6.03;;;2.47;;
32760;SDS011;19126;47.472;7.850;2022-07-17T11:06:26;3.25;;;1.58;;
32760;SDS011;19126;47.472;7.850;2022-07-17T11:08:56;6.95;;;1.88;;
32760;SDS011;19126;47.472;7.850;2022-07-17T11:11:38;6.68;;;2.25;;
32760;SDS011;19126;47.472;7.850;2022-07-17T11:14:08;7.28;;;2.33;;
32760;SDS011;19126;47.472;7.850;2022-07-17T11:16:37;4.97;;;1.80;;
32760;SDS011;19126;47.472;7.850;2022-07-17T11:19:12;9.73;;;2.10;;
32760;SDS011;19126;47.472;7.850;2022-07-17T11:21:47;6.25;;;2.00;;
32760;SDS011;19126;47.472;7.850;2022-07-17T11:24:15;8.45;;;2.03;;
32760;SDS011;19126;47.472;7.850;2022-07-17T11:26:44;4.22;;;1.92;;
32760;SDS011;19126;47.472;7.850;2022-07-17T11:29:14;11.63;;;2.03;;
32760;SDS011;19126;47.472;7.850;2022-07-17T11:31:42;5.68;;;2.60;;
32760;SDS011;19126;47.472;7.850;2022-07-17T11:34:11;4.85;;;1.85;;
32760;SDS011;19126;47.472;7.850;2022-07-17T11:36:39;4.18;;;2.08;;
32760;SDS011;19126;47.472;7.850;2022-07-17T11:39:10;2.10;;;1.85;;
32760;SDS011;19126;47.472;7.850;2022-07-17T11:41:41;10.10;;;2.63;;
32760;SDS011;19126;47.472;7.850;2022-07-17T11:44:13;6.22;;;2.03;;
32760;SDS011;19126;47.472;7.850;2022-07-17T11:46:42;5.50;;;1.98;;
32760;SDS011;19126;47.472;7.850;2022-07-17T11:49:22;8.77;;;2.10;;
32760;SDS011;19126;47.472;7.850;2022-07-17T11:51:51;9.23;;;2.10;;
32760;SDS011;19126;47.472;7.850;2022-07-17T11:54:19;5.63;;;2.65;;
32760;SDS011;19126;47.472;7.850;2022-07-17T11:56:52;5.43;;;1.75;;
32760;SDS011;19126;47.472;7.850;2022-07-17T11:59:24;3.45;;;2.03;;
32760;SDS011;19126;47.472;7.850;2022-07-17T12:01:54;2.80;;;1.60;;
32760;SDS011;19126;47.472;7.850;2022-07-17T12:04:21;3.47;;;1.88;;
32760;SDS011;19126;47.472;7.850;2022-07-17T12:06:57;3.70;;;2.22;;
32760;SDS011;19126;47.472;7.850;2022-07-17T12:09:26;7.93;;;2.05;;
32760;SDS011;19126;47.472;7.850;2022-07-17T12:11:55;8.93;;;2.10;;
32760;SDS011;19126;47.472;7.850;2022-07-17T12:14:23;10.30;;;1.67;;
32760;SDS011;19126;47.472;7.850;2022-07-17T12:16:50;2.92;;;1.60;;
32760;SDS011;19126;47.472;7.850;2022-07-17T12:19:18;3.55;;;1.65;;
32760;SDS011;19126;47.472;7.850;2022-07-17T12:21:55;3.17;;;1.83;;
32760;SDS011;19126;47.472;7.850;2022-07-17T12:24:27;3.08;;;1.70;;
32760;SDS011;19126;47.472;7.850;2022-07-17T12:26:59;7.40;;;1.70;;
32760;SDS011;19126;47.472;7.850;2022-07-17T12:29:28;8.80;;;1.80;;
32760;SDS011;19126;47.472;7.850;2022-07-17T12:32:02;3.60;;;1.85;;
32760;SDS011;19126;47.472;7.850;2022-07-17T12:34:31;5.22;;;1.65;;
32760;SDS011;19126;47.472;7.850;2022-07-17T12:36:59;5.00;;;1.20;;
32760;SDS011;19126;47.472;7.850;2022-07-17T12:39:26;5.53;;;1.80;;
32760;SDS011;19126;47.472;7.850;2022-07-17T12:41:53;7.13;;;1.77;;
32760;SDS011;19126;47.472;7.850;2022-07-17T12:44:22;3.72;;;1.80;;
32760;SDS011;19126;47.472;7.850;2022-07-17T12:46:50;5.15;;;1.52;;
32760;SDS011;19126;47.472;7.850;2022-07-17T12:49:17;2.28;;;1.33;;
32760;SDS011;19126;47.472;7.850;2022-07-17T12:51:45;7.63;;;2.00;;
32760;SDS011;19126;47.472;7.850;2022-07-17T12:54:12;7.55;;;1.75;;
32760;SDS011;19126;47.472;7.850;2022-07-17T12:56:40;7.63;;;1.70;;
32760;SDS011;19126;47.472;7.850;2022-07-17T12:59:07;3.22;;;1.70;;
32760;SDS011;19126;47.472;7.850;2022-07-17T13:01:36;4.55;;;1.80;;
32760;SDS011;19126;47.472;7.850;2022-07-17T13:04:03;4.70;;;1.50;;
32760;SDS011;19126;47.472;7.850;2022-07-17T13:06:30;7.57;;;1.70;;
32760;SDS011;19126;47.472;7.850;2022-07-17T13:08:58;7.65;;;1.60;;
32760;SDS011;19126;47.472;7.850;2022-07-17T13:11:25;2.88;;;1.58;;
32760;SDS011;19126;47.472;7.850;2022-07-17T13:13:53;8.80;;;1.65;;
32760;SDS011;19126;47.472;7.850;2022-07-17T13:16:20;5.75;;;1.60;;
32760;SDS011;19126;47.472;7.850;2022-07-17T13:18:49;4.03;;;1.60;;
32760;SDS011;19126;47.472;7.850;2022-07-17T13:21:16;9.63;;;1.65;;
32760;SDS011;19126;47.472;7.850;2022-07-17T13:23:44;4.68;;;1.30;;
32760;SDS011;19126;47.472;7.850;2022-07-17T13:26:11;11.70;;;2.13;;
32760;SDS011;19126;47.472;7.850;2022-07-17T13:28:38;6.38;;;1.50;;
32760;SDS011;19126;47.472;7.850;2022-07-17T13:31:05;4.40;;;1.95;;
32760;SDS011;19126;47.472;7.850;2022-07-17T13:33:33;7.00;;;1.50;;
32760;SDS011;19126;47.472;7.850;2022-07-17T13:36:02;6.97;;;1.73;;
32760;SDS011;19126;47.472;7.850;2022-07-17T13:38:30;5.55;;;1.90;;
32760;SDS011;19126;47.472;7.850;2022-07-17T13:40:57;5.68;;;1.70;;
32760;SDS011;19126;47.472;7.850;2022-07-17T13:43:24;3.85;;;1.65;;
32760;SDS011;19126;47.472;7.850;2022-07-17T13:45:52;2.70;;;1.40;;
32760;SDS011;19126;47.472;7.850;2022-07-17T13:48:19;4.63;;;1.58;;
32760;SDS011;19126;47.472;7.850;2022-07-17T13:50:46;6.70;;;1.48;;
32760;SDS011;19126;47.472;7.850;2022-07-17T13:53:15;4.40;;;1.75;;
32760;SDS011;19126;47.472;7.850;2022-07-17T13:55:42;2.08;;;1.08;;
32760;SDS011;19126;47.472;7.850;2022-07-17T13:58:09;7.63;;;1.75;;
32760;SDS011;19126;47.472;7.850;2022-07-17T14:00:36;9.35;;;1.40;;
32760;SDS011;19126;47.472;7.850;2022-07-17T14:03:04;8.05;;;1.63;;
32760;SDS011;19126;47.472;7.850;2022-07-17T14:05:31;4.97;;;1.58;;
32760;SDS011;19126;47.472;7.850;2022-07-17T14:07:58;7.25;;;1.50;;
32760;SDS011;19126;47.472;7.850;2022-07-17T14:10:27;1.67;;;1.50;;
32760;SDS011;19126;47.472;7.850;2022-07-17T14:12:54;6.30;;;1.60;;
32760;SDS011;19126;47.472;7.850;2022-07-17T14:15:22;3.78;;;1.30;;
32760;SDS011;19126;47.472;7.850;2022-07-17T14:17:49;3.67;;;1.50;;
32760;SDS011;19126;47.472;7.850;2022-07-17T14:20:16;3.13;;;1.30;;
32760;SDS011;19126;47.472;7.850;2022-07-17T14:22:43;5.75;;;1.90;;
32760;SDS011;19126;47.472;7.850;2022-07-17T14:25:11;3.42;;;1.60;;
32760;SDS011;19126;47.472;7.850;2022-07-17T14:27:39;4.97;;;1.60;;
32760;SDS011;19126;47.472;7.850;2022-07-17T14:30:07;3.83;;;1.80;;
32760;SDS011;19126;47.472;7.850;2022-07-17T14:32:35;3.38;;;1.75;;
32760;SDS011;19126;47.472;7.850;2022-07-17T14:35:03;3.40;;;1.58;;
32760;SDS011;19126;47.472;7.850;2022-07-17T14:37:31;5.85;;;1.70;;
32760;SDS011;19126;47.472;7.850;2022-07-17T14:39:58;3.83;;;1.70;;
32760;SDS011;19126;47.472;7.850;2022-07-17T14:42:26;4.88;;;1.42;;
32760;SDS011;19126;47.472;7.850;2022-07-17T14:44:55;2.25;;;1.70;;
32760;SDS011;19126;47.472;7.850;2022-07-17T14:47:22;2.92;;;1.38;;
32760;SDS011;19126;47.472;7.850;2022-07-17T14:49:49;5.22;;;1.58;;
32760;SDS011;19126;47.472;7.850;2022-07-17T14:52:16;3.92;;;1.90;;
32760;SDS011;19126;47.472;7.850;2022-07-17T14:54:43;9.02;;;1.85;;